Time;durP1;ratioP1;P1;durP2;ratioP2;P2;SDS_P1;SDS_P2;PMS_P1;PMS_P2;Temp;Humidity;BMP_temperature;BMP_pressure;BME280_temperature;BME280_humidity;BME280_pressure;Samples;Min_cycle;Max_cycle;Signal;HPM_P1;HPM_P2
2023/02/02 00:01:46;;;;;;;;;;;;;;;4.79;51.38;93194.78;2051497;70;20130;-75
2023/02/02 00:04:14;;;;;;;;;;;;;;;4.69;51.74;93200.19;2051371;70;20141;-75
2023/02/02 00:06:40;;;;;;;;;;;;;;;4.60;52.00;93200.75;2051625;70;20051;-75
2023/02/02 00:09:06;;;;;;;;;;;;;;;4.48;52.14;93196.88;2051562;70;20180;-75
2023/02/02 00:11:32;;;;;;;;;;;;;;;4.39;52.07;93211.38;2048336;70;20057;-75
2023/02/02 00:13:59;;;;;;;;;;;;;;;4.66;51.44;93197.78;2051430;70;20062;-75
2023/02/02 00:16:25;;;;;;;;;;;;;;;4.40;51.43;93193.34;2051405;70;20501;-75
2023/02/02 00:18:51;;;;;;;;;;;;;;;4.67;50.84;93196.47;2051552;70;20133;-76
2023/02/02 00:21:17;;;;;;;;;;;;;;;4.70;50.79;93184.94;2051616;70;20494;-75
2023/02/02 00:23:42;;;;;;;;;;;;;;;4.53;52.00;93193.88;2051507;70;20066;-74
2023/02/02 00:26:08;;;;;;;;;;;;;;;4.48;51.43;93196.88;2051531;70;20085;-75
2023/02/02 00:28:33;;;;;;;;;;;;;;;4.50;51.76;93191.50;2051512;70;20438;-75
2023/02/02 00:30:59;;;;;;;;;;;;;;;4.62;51.28;93192.56;2048046;70;20046;-76
2023/02/02 00:33:24;;;;;;;;;;;;;;;4.42;51.05;93188.69;2048163;70;20399;-76
2023/02/02 00:35:53;;;;;;;;;;;;;;;4.40;50.49;93182.94;2047051;70;20431;-77
2023/02/02 00:38:19;;;;;;;;;;;;;;;4.63;50.91;93171.75;2048348;70;20500;-75
2023/02/02 00:40:47;;;;;;;;;;;;;;;4.57;51.84;93182.34;2048514;70;20043;-76
2023/02/02 00:43:14;;;;;;;;;;;;;;;4.66;50.58;93164.31;2047683;70;20133;-76
2023/02/02 00:45:41;;;;;;;;;;;;;;;4.31;49.36;93156.38;2047751;70;20047;-77
2023/02/02 00:48:06;;;;;;;;;;;;;;;4.47;49.45;93161.94;2048304;70;20480;-76
2023/02/02 00:50:34;;;;;;;;;;;;;;;4.30;49.13;93149.31;2047710;70;20141;-75
2023/02/02 00:53:01;;;;;;;;;;;;;;;4.64;48.91;93161.34;2048295;70;20054;-77
2023/02/02 00:55:26;;;;;;;;;;;;;;;4.75;48.61;93166.50;2048279;70;20047;-76
2023/02/02 00:57:53;;;;;;;;;;;;;;;4.60;49.35;93156.16;2048256;70;20078;-77
2023/02/02 01:00:22;;;;;;;;;;;;;;;4.52;49.71;93155.41;2047889;70;20051;-77
2023/02/02 01:02:51;;;;;;;;;;;;;;;4.50;49.41;93181.06;2047756;70;20123;-76
2023/02/02 01:05:17;;;;;;;;;;;;;;;4.57;50.00;93185.13;2047738;70;20491;-77
2023/02/02 01:07:44;;;;;;;;;;;;;;;4.70;49.36;93175.81;2047731;70;20082;-76
2023/02/02 01:10:13;;;;;;;;;;;;;;;4.33;49.93;93194.84;2048289;70;20118;-76
2023/02/02 01:12:39;;;;;;;;;;;;;;;4.41;50.25;93192.06;2048134;70;20047;-77
2023/02/02 01:15:05;;;;;;;;;;;;;;;4.63;49.61;93187.72;2047673;70;20047;-75
2023/02/02 01:17:31;;;;;;;;;;;;;;;4.41;49.61;93192.78;2048484;70;20083;-77
2023/02/02 01:19:57;;;;;;;;;;;;;;;4.48;50.23;93194.06;2047708;70;20069;-76
2023/02/02 01:22:23;;;;;;;;;;;;;;;4.55;49.33;93190.53;2048328;70;20511;-75
2023/02/02 01:24:49;;;;;;;;;;;;;;;4.53;48.71;93191.09;2048246;70;20047;-75
2023/02/02 01:27:14;;;;;;;;;;;;;;;4.75;48.24;93199.97;2048314;70;20050;-76
2023/02/02 01:29:40;;;;;;;;;;;;;;;4.76;49.00;93201.47;2048277;70;20142;-77
2023/02/02 01:32:06;;;;;;;;;;;;;;;4.52;49.46;93186.09;2047210;70;20074;-75
2023/02/02 01:34:32;;;;;;;;;;;;;;;4.39;49.11;93192.59;2048167;70;20114;-76
2023/02/02 01:36:57;;;;;;;;;;;;;;;4.52;48.91;93197.97;2051279;70;20130;-76
2023/02/02 01:39:23;;;;;;;;;;;;;;;4.42;49.28;93188.69;2051458;70;20564;-77
2023/02/02 01:41:48;;;;;;;;;;;;;;;4.53;49.19;93191.09;2051788;70;20050;-76
2023/02/02 01:44:33;;;;;;;;;;;;;;;4.57;49.53;93185.88;2047713;70;20058;-76
2023/02/02 01:46:58;;;;;;;;;;;;;;;4.83;48.87;93192.34;2051160;70;20547;-76
2023/02/02 01:49:24;;;;;;;;;;;;;;;4.23;51.06;93191.88;2047982;70;20142;-76
2023/02/02 01:51:52;;;;;;;;;;;;;;;4.24;51.11;93195.41;2048048;70;20145;-76
2023/02/02 01:54:45;;;;;;;;;;;;;;;4.32;50.98;93191.31;2047715;70;20047;-76
2023/02/02 01:57:14;;;;;;;;;;;;;;;4.44;51.21;93179.75;2050642;70;20427;-76
2023/02/02 01:59:40;;;;;;;;;;;;;;;4.22;51.18;93190.41;2047956;70;20050;-76
2023/02/02 02:02:06;;;;;;;;;;;;;;;4.51;50.68;93188.13;2047946;70;20061;-76
2023/02/02 02:04:32;;;;;;;;;;;;;;;4.18;51.25;93192.81;2051381;70;20431;-76
2023/02/02 02:07:00;;;;;;;;;;;;;;;4.31;50.93;93175.91;2051221;70;20070;-77
2023/02/02 02:09:26;;;;;;;;;;;;;;;4.62;50.41;93184.19;2047996;70;20507;-76
2023/02/02 02:11:54;;;;;;;;;;;;;;;4.47;50.63;93187.75;2048007;70;20059;-77
2023/02/02 02:17:08;;;;;;;;;;;;;;;4.33;50.36;93206.72;2051458;70;20054;-76
2023/02/02 02:26:32;;;;;;;;;;;;;;;4.73;49.81;93194.25;2051218;70;20154;-77
2023/02/02 02:28:56;;;;;;;;;;;;;;;4.69;50.64;93189.03;2040610;70;20075;-76
2023/02/02 02:31:30;;;;;;;;;;;;;;;4.40;51.01;93182.94;2037684;70;20047;-76
2023/02/02 02:33:59;;;;;;;;;;;;;;;4.54;51.17;93181.44;2049116;70;20471;-76
2023/02/02 02:36:40;;;;;;;;;;;;;;;4.73;50.97;93200.56;2047896;70;20506;-77
2023/02/02 02:39:17;;;;;;;;;;;;;;;4.19;52.21;93191.50;2051231;70;20522;-75
2023/02/02 02:41:47;;;;;;;;;;;;;;;4.43;51.80;93189.44;2047946;70;20142;-75
2023/02/02 02:44:15;;;;;;;;;;;;;;;4.33;51.66;93176.06;2047614;70;20066;-75
2023/02/02 02:46:41;;;;;;;;;;;;;;;4.15;52.51;93184.81;2047969;70;20054;-75
2023/02/02 02:49:08;;;;;;;;;;;;;;;4.39;52.24;93187.03;2047533;70;20050;-75
2023/02/02 02:51:40;;;;;;;;;;;;;;;4.43;52.07;93178.28;2047420;70;20594;-75
2023/02/02 02:54:06;;;;;;;;;;;;;;;4.42;51.84;93171.22;2047818;70;20422;-75
2023/02/02 02:56:38;;;;;;;;;;;;;;;4.51;51.63;93174.19;2047393;70;20039;-74
2023/02/02 02:59:15;;;;;;;;;;;;;;;4.51;51.86;93170.66;2048063;70;20062;-75
2023/02/02 03:01:47;;;;;;;;;;;;;;;4.30;52.43;93162.50;2051649;70;20051;-75
2023/02/02 03:04:21;;;;;;;;;;;;;;;4.60;51.80;93164.50;2051688;70;20050;-75
2023/02/02 03:06:52;;;;;;;;;;;;;;;4.67;51.20;93172.09;2051915;70;20127;-75
2023/02/02 03:09:21;;;;;;;;;;;;;;;4.53;52.38;93163.19;2051737;70;20074;-74
2023/02/02 03:11:47;;;;;;;;;;;;;;;4.24;52.52;93165.47;2048515;70;20038;-76
2023/02/02 03:14:13;;;;;;;;;;;;;;;4.33;52.78;93150.97;2051509;70;20057;-75
2023/02/02 03:16:39;;;;;;;;;;;;;;;4.45;52.16;93162.50;2051659;70;20419;-77
2023/02/02 03:19:05;;;;;;;;;;;;;;;4.44;53.21;93140.72;2051699;70;20043;-77
2023/02/02 03:21:30;;;;;;;;;;;;;;;4.57;52.28;93144.06;2051768;70;20117;-77
2023/02/02 03:23:56;;;;;;;;;;;;;;;4.55;52.29;93143.88;2051760;70;20058;-76
2023/02/02 03:26:21;;;;;;;;;;;;;;;4.58;52.42;93147.59;2051767;70;20156;-76
2023/02/02 03:28:48;;;;;;;;;;;;;;;4.50;52.69;93169.19;2051686;70;20067;-76
2023/02/02 03:31:13;;;;;;;;;;;;;;;4.50;52.30;93175.50;2051756;70;20153;-77
2023/02/02 03:33:39;;;;;;;;;;;;;;;4.55;52.22;93176.59;2051629;70;20046;-76
2023/02/02 03:36:05;;;;;;;;;;;;;;;4.74;50.67;93182.50;2051600;70;20152;-76
2023/02/02 03:38:30;;;;;;;;;;;;;;;4.63;51.42;93196.09;2051631;70;20059;-76
2023/02/02 03:40:56;;;;;;;;;;;;;;;4.62;51.43;93194.63;2051739;70;20114;-76
2023/02/02 03:43:24;;;;;;;;;;;;;;;4.51;51.78;93195.75;2048432;70;20050;-75
2023/02/02 03:46:02;;;;;;;;;;;;;;;4.53;52.04;93199.44;2051702;70;20051;-77
2023/02/02 03:48:28;;;;;;;;;;;;;;;4.62;52.10;93202.97;2050736;70;20054;-76
2023/02/02 03:50:54;;;;;;;;;;;;;;;4.33;51.77;93201.16;2051697;70;20462;-77
2023/02/02 03:53:20;;;;;;;;;;;;;;;4.54;51.56;93195.38;2051785;70;20061;-75
2023/02/02 03:55:45;;;;;;;;;;;;;;;4.36;51.14;93185.38;2051681;70;20141;-75
2023/02/02 03:58:11;;;;;;;;;;;;;;;4.74;50.49;93188.09;2051617;70;20050;-76
2023/02/02 04:00:36;;;;;;;;;;;;;;;4.08;52.40;93183.53;2051718;70;20059;-76
2023/02/02 04:03:05;;;;;;;;;;;;;;;4.44;52.47;93188.13;2051784;70;20479;-76
2023/02/02 04:05:30;;;;;;;;;;;;;;;4.48;51.07;93182.94;2051787;70;20043;-75
2023/02/02 04:07:56;;;;;;;;;;;;;;;4.49;51.41;93184.41;2052025;70;20476;-75
2023/02/02 04:10:21;;;;;;;;;;;;;;;4.66;51.42;93186.63;2051710;70;20049;-75
2023/02/02 04:12:47;;;;;;;;;;;;;;;4.30;52.73;93205.06;2048289;70;20493;-75
2023/02/02 04:15:12;;;;;;;;;;;;;;;4.17;53.21;93187.78;2051436;70;20588;-77
2023/02/02 04:17:38;;;;;;;;;;;;;;;4.43;52.90;93208.94;2051578;70;20050;-77
2023/02/02 04:20:04;;;;;;;;;;;;;;;4.47;53.27;93198.16;2048378;70;20070;-75
2023/02/02 04:22:29;;;;;;;;;;;;;;;4.66;51.92;93206.13;2048321;70;20077;-75
2023/02/02 04:24:55;;;;;;;;;;;;;;;4.34;52.81;93210.25;2051608;70;20418;-77
2023/02/02 04:27:20;;;;;;;;;;;;;;;4.19;53.73;93194.28;2051513;70;20090;-76
2023/02/02 04:29:47;;;;;;;;;;;;;;;4.16;53.86;93197.44;2051578;70;20533;-75
2023/02/02 04:32:15;;;;;;;;;;;;;;;4.11;54.90;93207.47;2051637;70;20050;-76
2023/02/02 04:34:41;;;;;;;;;;;;;;;4.11;54.61;93201.16;2051552;70;20395;-75
2023/02/02 04:37:06;;;;;;;;;;;;;;;4.08;55.09;93223.28;2051429;70;20043;-76
2023/02/02 04:39:32;;;;;;;;;;;;;;;4.28;54.38;93210.44;2048328;70;20135;-75
2023/02/02 04:41:57;;;;;;;;;;;;;;;4.54;53.47;93214.16;2051409;70;20043;-75
2023/02/02 04:44:23;;;;;;;;;;;;;;;4.28;54.74;93223.66;2051609;70;20062;-77
2023/02/02 04:46:48;;;;;;;;;;;;;;;4.22;54.93;93220.31;2048289;70;20046;-77
2023/02/02 04:49:14;;;;;;;;;;;;;;;4.15;55.32;93230.13;2051557;70;20500;-77
2023/02/02 04:51:41;;;;;;;;;;;;;;;4.04;55.86;93239.63;2051509;70;20078;-77
2023/02/02 04:54:07;;;;;;;;;;;;;;;4.12;55.80;93236.06;2051501;70;20085;-77
2023/02/02 04:56:33;;;;;;;;;;;;;;;3.91;57.24;93239.78;2051732;70;20145;-77
2023/02/02 04:58:58;;;;;;;;;;;;;;;3.77;57.97;93241.97;2048194;70;20054;-77
2023/02/02 05:01:24;;;;;;;;;;;;;;;3.85;58.23;93252.38;2051416;70;20090;-76
2023/02/02 05:03:50;;;;;;;;;;;;;;;3.41;59.88;93250.41;2051478;70;20046;-75
2023/02/02 05:06:16;;;;;;;;;;;;;;;3.31;61.49;93250.19;2051493;70;20045;-76
2023/02/02 05:08:42;;;;;;;;;;;;;;;3.55;61.47;93245.44;2051593;70;20047;-74
2023/02/02 05:11:09;;;;;;;;;;;;;;;3.41;62.31;93250.41;2051491;70;20047;-76
2023/02/02 05:13:34;;;;;;;;;;;;;;;3.79;60.67;93244.94;2051286;70;20092;-76
2023/02/02 05:15:59;;;;;;;;;;;;;;;3.57;62.67;93237.28;2051560;70;20467;-76
2023/02/02 05:18:25;;;;;;;;;;;;;;;3.35;63.57;93247.06;2051562;70;20049;-77
2023/02/02 05:20:51;;;;;;;;;;;;;;;3.52;63.65;93252.09;2051369;70;20053;-77
2023/02/02 05:23:18;;;;;;;;;;;;;;;3.62;63.30;93252.31;2051481;70;20497;-77
2023/02/02 05:25:44;;;;;;;;;;;;;;;3.90;61.97;93237.56;2051410;70;20476;-77
2023/02/02 05:28:11;;;;;;;;;;;;;;;4.14;61.45;93247.44;2051388;70;20425;-76
2023/02/02 05:30:38;;;;;;;;;;;;;;;4.19;61.29;93252.06;2051572;70;20137;-77
2023/02/02 05:33:03;;;;;;;;;;;;;;;4.16;61.45;93255.97;2051469;70;20427;-76
2023/02/02 05:35:28;;;;;;;;;;;;;;;4.15;61.50;93257.25;2051419;70;20093;-76
2023/02/02 05:37:54;;;;;;;;;;;;;;;4.18;60.96;93253.38;2051395;70;20058;-76
2023/02/02 05:40:19;;;;;;;;;;;;;;;3.89;62.79;93256.28;2051460;70;20050;-76
2023/02/02 05:42:46;;;;;;;;;;;;;;;3.77;63.47;93257.94;2051342;70;20415;-75
2023/02/02 05:45:12;;;;;;;;;;;;;;;3.44;65.57;93237.44;2051506;70;20047;-75
2023/02/02 05:47:37;;;;;;;;;;;;;;;3.03;67.74;93239.13;2051497;70;20057;-76
2023/02/02 05:50:03;;;;;;;;;;;;;;;3.49;65.58;93236.53;2051497;70;20047;-76
2023/02/02 05:52:31;;;;;;;;;;;;;;;3.89;63.71;93244.41;2051530;70;20050;-76
2023/02/02 05:54:56;;;;;;;;;;;;;;;3.96;63.30;93240.91;2048344;70;20404;-76
2023/02/02 05:57:21;;;;;;;;;;;;;;;3.86;63.92;93237.19;2051384;70;20498;-76
2023/02/02 05:59:47;;;;;;;;;;;;;;;3.89;63.60;93234.00;2051679;70;20118;-77
2023/02/02 06:02:12;;;;;;;;;;;;;;;3.53;65.20;93245.25;2051609;70;20054;-76
2023/02/02 06:04:38;;;;;;;;;;;;;;;3.61;64.94;93246.00;2051500;70;20055;-76
2023/02/02 06:07:03;;;;;;;;;;;;;;;3.20;66.61;93242.16;2051519;70;20066;-76
2023/02/02 06:09:29;;;;;;;;;;;;;;;3.56;65.74;93253.25;2051641;70;20045;-76
2023/02/02 06:11:54;;;;;;;;;;;;;;;3.55;65.49;93251.75;2051526;70;20043;-76
2023/02/02 06:14:19;;;;;;;;;;;;;;;3.23;67.20;93259.78;2051545;70;20060;-76
2023/02/02 06:16:45;;;;;;;;;;;;;;;3.45;65.74;93255.63;2051628;70;20050;-75
2023/02/02 06:19:10;;;;;;;;;;;;;;;3.34;66.02;93261.50;2051458;70;20526;-75
2023/02/02 06:21:36;;;;;;;;;;;;;;;3.26;66.60;93255.91;2051440;70;20082;-76
2023/02/02 06:24:01;;;;;;;;;;;;;;;3.77;64.60;93252.38;2048109;70;20053;-75
2023/02/02 06:26:27;;;;;;;;;;;;;;;3.91;63.33;93255.75;2051361;70;20054;-75
2023/02/02 06:28:53;;;;;;;;;;;;;;;3.88;64.13;93251.28;2051410;70;20042;-77
2023/02/02 06:31:19;;;;;;;;;;;;;;;3.90;63.94;93257.06;2051390;70;20113;-76
2023/02/02 06:33:45;;;;;;;;;;;;;;;3.85;64.18;93255.94;2051296;70;20074;-75
2023/02/02 06:36:10;;;;;;;;;;;;;;;3.94;63.15;93258.19;2051311;70;20053;-76
2023/02/02 06:38:37;;;;;;;;;;;;;;;3.95;63.50;93261.69;2051416;70;20059;-76
2023/02/02 06:41:03;;;;;;;;;;;;;;;4.01;62.78;93262.25;2051400;70;20113;-76
2023/02/02 06:43:29;;;;;;;;;;;;;;;3.88;63.50;93257.59;2051320;70;20431;-77
2023/02/02 06:45:57;;;;;;;;;;;;;;;3.95;63.52;93261.69;2051387;70;20493;-77
2023/02/02 06:48:23;;;;;;;;;;;;;;;3.95;63.42;93273.59;2051643;70;20146;-76
2023/02/02 06:50:48;;;;;;;;;;;;;;;3.88;64.60;93271.50;2051275;70;20103;-77
2023/02/02 06:53:14;;;;;;;;;;;;;;;3.99;63.25;93262.81;2051345;70;20106;-75
2023/02/02 06:55:40;;;;;;;;;;;;;;;4.00;62.81;93271.94;2051434;70;20099;-76
2023/02/02 06:58:05;;;;;;;;;;;;;;;3.69;64.42;93276.66;2051259;70;20144;-77
2023/02/02 07:00:32;;;;;;;;;;;;;;;3.69;64.09;93263.50;2051273;70;20054;-78
2023/02/02 07:02:57;;;;;;;;;;;;;;;3.98;63.08;93280.06;2051222;70;20063;-77
2023/02/02 07:05:23;;;;;;;;;;;;;;;4.03;63.05;93284.72;2051292;70;20475;-76
2023/02/02 07:07:49;;;;;;;;;;;;;;;4.01;63.57;93288.06;2051268;70;20134;-76
2023/02/02 07:10:14;;;;;;;;;;;;;;;3.78;64.30;93287.28;2051426;70;20399;-77
2023/02/02 07:12:40;;;;;;;;;;;;;;;3.80;64.77;93288.22;2051247;70;20058;-75
2023/02/02 07:15:06;;;;;;;;;;;;;;;3.96;63.96;93294.56;2051481;70;20426;-76
2023/02/02 07:17:31;;;;;;;;;;;;;;;3.98;64.48;93305.91;2051329;70;20038;-78
2023/02/02 07:19:57;;;;;;;;;;;;;;;3.98;64.18;93302.38;2051270;70;20054;-77
2023/02/02 07:22:22;;;;;;;;;;;;;;;3.90;65.08;93301.63;2051267;70;20053;-78
2023/02/02 07:24:48;;;;;;;;;;;;;;;3.71;65.33;93299.13;2051497;70;20133;-76
2023/02/02 07:27:13;;;;;;;;;;;;;;;3.75;65.64;93302.31;2051370;70;20066;-75
2023/02/02 07:29:39;;;;;;;;;;;;;;;3.46;66.72;93307.22;2051290;70;20046;-76
2023/02/02 07:32:04;;;;;;;;;;;;;;;3.65;66.32;93298.56;2051375;70;20137;-78
2023/02/02 07:34:29;;;;;;;;;;;;;;;3.90;65.22;93298.84;2051253;70;20121;-76
2023/02/02 07:36:56;;;;;;;;;;;;;;;3.93;64.90;93300.50;2051295;70;20584;-76
2023/02/02 07:39:22;;;;;;;;;;;;;;;3.70;65.27;93301.16;2051271;70;20058;-75
2023/02/02 07:41:47;;;;;;;;;;;;;;;3.69;64.99;93307.31;2047818;70;20050;-76
2023/02/02 07:44:23;;;;;;;;;;;;;;;3.81;64.43;93308.47;2047920;70;20054;-75
2023/02/02 07:46:48;;;;;;;;;;;;;;;4.00;63.61;93308.16;2051781;70;20046;-75
2023/02/02 07:49:15;;;;;;;;;;;;;;;3.96;64.67;93302.19;2051525;70;20428;-76
2023/02/02 07:51:41;;;;;;;;;;;;;;;3.96;64.98;93307.75;2051797;70;20047;-76
2023/02/02 07:54:06;;;;;;;;;;;;;;;3.85;65.12;93305.28;2051745;70;20129;-76
2023/02/02 07:56:32;;;;;;;;;;;;;;;3.78;65.29;93284.50;2051632;70;20043;-75
2023/02/02 07:58:57;;;;;;;;;;;;;;;3.96;65.65;93305.72;2051555;70;20039;-76
2023/02/02 08:01:24;;;;;;;;;;;;;;;4.07;64.15;93310.94;2048288;70;20494;-76
2023/02/02 08:03:52;;;;;;;;;;;;;;;3.54;65.47;93305.22;2051738;70;20089;-76
2023/02/02 08:06:19;;;;;;;;;;;;;;;3.02;68.20;93301.59;2051898;70;20058;-76
2023/02/02 08:08:45;;;;;;;;;;;;;;;2.95;68.96;93303.03;2051833;70;20121;-76
2023/02/02 08:11:12;;;;;;;;;;;;;;;3.35;67.70;93313.13;2051597;70;20043;-77
2023/02/02 08:13:39;;;;;;;;;;;;;;;3.76;66.02;93309.38;2051526;70;20153;-76
2023/02/02 08:16:05;;;;;;;;;;;;;;;3.84;66.04;93310.13;2051783;70;20059;-76
2023/02/02 08:18:34;;;;;;;;;;;;;;;3.82;66.81;93307.16;2051847;70;20054;-76
2023/02/02 08:21:02;;;;;;;;;;;;;;;3.89;66.64;93303.63;2051715;70;20054;-76
2023/02/02 08:23:28;;;;;;;;;;;;;;;3.68;66.32;93303.03;2051726;70;20054;-76
2023/02/02 08:25:54;;;;;;;;;;;;;;;3.82;65.92;93310.69;2048363;70;20074;-78
2023/02/02 08:28:19;;;;;;;;;;;;;;;3.70;65.79;93319.94;2045584;70;20149;-79
2023/02/02 08:30:45;;;;;;;;;;;;;;;3.28;67.08;93320.09;2051685;70;20049;-79
2023/02/02 08:33:11;;;;;;;;;;;;;;;3.54;66.92;93333.06;2051657;70;20051;-79
2023/02/02 08:35:41;;;;;;;;;;;;;;;3.49;66.12;93329.13;2047723;70;20199;-79
2023/02/02 08:38:06;;;;;;;;;;;;;;;3.28;67.18;93331.25;2048276;70;20077;-76
2023/02/02 08:40:32;;;;;;;;;;;;;;;3.41;67.33;93330.38;2047823;70;20071;-77
2023/02/02 08:42:58;;;;;;;;;;;;;;;3.40;67.27;93326.13;2047755;70;20043;-77
2023/02/02 08:45:24;;;;;;;;;;;;;;;3.82;66.10;93329.44;2048499;70;20193;-77
2023/02/02 08:47:50;;;;;;;;;;;;;;;3.72;65.64;93332.00;2048492;70;20503;-77
2023/02/02 08:50:16;;;;;;;;;;;;;;;3.29;67.63;93329.94;2048602;70;20488;-77
2023/02/02 08:52:41;;;;;;;;;;;;;;;3.47;67.74;93336.53;2047789;70;20055;-76
2023/02/02 08:55:08;;;;;;;;;;;;;;;3.79;66.56;93338.91;2048273;70;20039;-77
2023/02/02 08:57:33;;;;;;;;;;;;;;;4.02;65.68;93338.97;2048353;70;20427;-75
2023/02/02 08:59:58;;;;;;;;;;;;;;;4.24;65.27;93337.53;2048830;70;20046;-77
2023/02/02 09:02:24;;;;;;;;;;;;;;;4.32;64.79;93335.53;2049104;70;20149;-76
2023/02/02 09:04:50;;;;;;;;;;;;;;;4.31;65.53;93339.63;2048938;70;20141;-76
2023/02/02 09:07:15;;;;;;;;;;;;;;;3.92;67.50;93338.75;2049587;70;20415;-76
2023/02/02 09:09:41;;;;;;;;;;;;;;;4.36;65.83;93340.75;2049109;70;20050;-78
2023/02/02 09:12:07;;;;;;;;;;;;;;;4.45;65.16;93340.19;2049445;70;20016;-78
2023/02/02 09:14:33;;;;;;;;;;;;;;;4.25;65.50;93350.91;2048810;70;20055;-77
2023/02/02 09:16:58;;;;;;;;;;;;;;;4.03;65.57;93348.81;2048455;70;20047;-76
2023/02/02 09:19:24;;;;;;;;;;;;;;;4.39;65.39;93359.13;2048293;70;20460;-77
2023/02/02 09:21:49;;;;;;;;;;;;;;;4.39;64.92;93356.34;2048270;70;20113;-77
2023/02/02 09:24:15;;;;;;;;;;;;;;;4.54;65.04;93371.06;2048217;70;20047;-77
2023/02/02 09:26:42;;;;;;;;;;;;;;;4.50;64.58;93369.94;2048262;70;20133;-75
2023/02/02 09:29:10;;;;;;;;;;;;;;;4.56;64.61;93368.44;2048126;70;20122;-77
2023/02/02 09:31:36;;;;;;;;;;;;;;;4.65;64.73;93380.38;2047716;70;20392;-76
2023/02/02 09:34:07;;;;;;;;;;;;;;;4.65;64.46;93381.09;2044840;70;20047;-74
2023/02/02 09:36:32;;;;;;;;;;;;;;;4.70;64.58;93382.22;2047647;70;20051;-76
2023/02/02 09:38:58;;;;;;;;;;;;;;;4.49;64.52;93374.00;2048448;70;20047;-76
2023/02/02 09:41:36;;;;;;;;;;;;;;;4.40;64.03;93369.75;2048172;70;20125;-75
2023/02/02 09:44:16;;;;;;;;;;;;;;;4.46;64.30;93389.06;2048160;70;20050;-75
2023/02/02 09:47:00;;;;;;;;;;;;;;;4.39;64.55;93382.16;2048232;70;20551;-74
2023/02/02 09:49:32;;;;;;;;;;;;;;;4.37;65.12;93400.75;2048182;70;20144;-75
2023/02/02 09:52:01;;;;;;;;;;;;;;;4.31;65.27;93398.16;2048299;70;20074;-74
2023/02/02 09:54:31;;;;;;;;;;;;;;;4.68;63.91;93402.31;2048175;70;20564;-75
2023/02/02 09:56:57;;;;;;;;;;;;;;;4.82;63.83;93408.47;2048143;70;20058;-75
2023/02/02 09:59:26;;;;;;;;;;;;;;;4.52;64.60;93401.53;2048188;70;20488;-76
2023/02/02 10:01:56;;;;;;;;;;;;;;;4.82;64.30;93400.84;2048195;70;20058;-76
2023/02/02 10:04:31;;;;;;;;;;;;;;;4.88;64.24;93397.13;2048183;70;20047;-76
2023/02/02 10:07:00;;;;;;;;;;;;;;;4.56;65.42;93393.53;2048047;70;20046;-75
2023/02/02 10:09:25;;;;;;;;;;;;;;;4.81;63.98;93391.00;2048290;70;20047;-76
2023/02/02 10:11:57;;;;;;;;;;;;;;;4.27;65.03;93395.72;2048225;70;20069;-74
2023/02/02 10:14:26;;;;;;;;;;;;;;;4.97;64.06;93394.50;2048198;70;20051;-74
2023/02/02 10:16:53;;;;;;;;;;;;;;;5.25;63.51;93398.41;2048035;70;20047;-74
2023/02/02 10:19:19;;;;;;;;;;;;;;;5.46;61.67;93389.84;2047685;70;20544;-74
2023/02/02 10:21:54;;;;;;;;;;;;;;;5.35;62.18;93390.97;2048411;70;20126;-75
2023/02/02 10:24:21;;;;;;;;;;;;;;;5.76;60.83;93394.59;2048459;70;20427;-75
2023/02/02 10:26:49;;;;;;;;;;;;;;;5.91;60.80;93374.25;2048245;70;20065;-75
2023/02/02 10:29:17;;;;;;;;;;;;;;;5.91;60.45;93377.81;2047552;70;20162;-74
2023/02/02 10:32:02;;;;;;;;;;;;;;;5.59;59.99;93378.47;2048187;70;20137;-74
2023/02/02 10:34:33;;;;;;;;;;;;;;;5.60;60.71;93391.84;2048183;70;20427;-75
2023/02/02 10:36:59;;;;;;;;;;;;;;;5.10;62.60;93385.22;2050532;70;20047;-76
2023/02/02 10:39:36;;;;;;;;;;;;;;;5.70;61.36;93386.44;2051514;70;20066;-75
2023/02/02 10:42:09;;;;;;;;;;;;;;;5.86;60.10;93389.91;2051379;70;20053;-76
2023/02/02 10:44:38;;;;;;;;;;;;;;;5.64;61.07;93397.06;2051408;70;20149;-75
2023/02/02 10:47:07;;;;;;;;;;;;;;;6.15;59.77;93389.66;2051390;70;20047;-76
2023/02/02 10:49:34;;;;;;;;;;;;;;;5.95;59.94;93394.19;2051499;70;20142;-76
2023/02/02 10:52:09;;;;;;;;;;;;;;;5.77;60.42;93376.53;2051451;70;20109;-75
2023/02/02 10:54:50;;;;;;;;;;;;;;;5.15;60.96;93381.50;2047828;70;20066;-75
2023/02/02 10:57:37;;;;;;;;;;;;;;;5.83;60.31;93380.63;2051320;70;20043;-74
2023/02/02 11:00:24;;;;;;;;;;;;;;;5.81;60.50;93380.41;2051309;70;20050;-75
2023/02/02 11:02:50;;;;;;;;;;;;;;;6.38;59.28;93393.09;2051528;70;20051;-76
2023/02/02 11:08:13;;;;;;;;;;;;;;;6.64;57.88;93389.00;2051619;70;20539;-75
2023/02/02 11:10:39;;;;;;;;;;;;;;;6.67;57.67;93375.97;2051518;70;20038;-75
2023/02/02 11:13:06;;;;;;;;;;;;;;;5.90;58.70;93379.09;2051315;70;20063;-75
2023/02/02 11:15:31;;;;;;;;;;;;;;;6.63;56.78;93370.75;2051176;70;20127;-75
2023/02/02 11:18:11;;;;;;;;;;;;;;;6.77;56.84;93374.75;2051264;70;20173;-75
2023/02/02 11:20:37;;;;;;;;;;;;;;;6.14;57.57;93382.56;2051763;70;20043;-74
2023/02/02 11:23:03;;;;;;;;;;;;;;;6.46;57.85;93370.66;2051812;70;20082;-75
2023/02/02 11:25:36;;;;;;;;;;;;;;;6.62;57.81;93369.28;2051890;70;20046;-77
2023/02/02 11:28:17;;;;;;;;;;;;;;;6.72;56.37;93372.94;2051693;70;20093;-76
2023/02/02 11:30:46;;;;;;;;;;;;;;;6.83;56.21;93377.34;2051804;70;20054;-75
2023/02/02 11:33:19;;;;;;;;;;;;;;;6.85;56.31;93369.13;2048194;70;20377;-76
2023/02/02 11:35:52;;;;;;;;;;;;;;;6.95;56.38;93377.63;2051733;70;20108;-75
2023/02/02 11:38:18;;;;;;;;;;;;;;;6.74;56.05;93363.97;2051818;70;20051;-76
2023/02/02 11:40:44;;;;;;;;;;;;;;;7.08;55.06;93371.75;2051726;70;20145;-74
2023/02/02 11:43:18;;;;;;;;;;;;;;;7.29;54.88;93374.94;2048433;70;20046;-75
2023/02/02 11:45:48;;;;;;;;;;;;;;;7.19;53.33;93373.31;2048515;70;20062;-75
2023/02/02 11:48:18;;;;;;;;;;;;;;;7.09;54.68;93362.75;2048496;70;20054;-76
2023/02/02 11:50:47;;;;;;;;;;;;;;;7.28;54.07;93358.69;2051790;70;20578;-76
2023/02/02 11:53:33;;;;;;;;;;;;;;;6.95;53.56;93369.22;2051767;70;20042;-74
2023/02/02 11:56:01;;;;;;;;;;;;;;;6.83;54.40;93361.28;2051731;70;20049;-74
2023/02/02 11:58:49;;;;;;;;;;;;;;;6.93;54.24;93361.41;2051651;70;20057;-74
2023/02/02 12:01:26;;;;;;;;;;;;;;;7.25;54.30;93362.66;2050375;70;20423;-74
2023/02/02 12:03:53;;;;;;;;;;;;;;;7.40;53.42;93362.50;2051890;70;20486;-76
2023/02/02 12:06:20;;;;;;;;;;;;;;;7.09;53.92;93345.22;2051867;70;20063;-76
2023/02/02 12:08:48;;;;;;;;;;;;;;;6.71;53.30;93320.34;2051734;70;20049;-76
2023/02/02 12:11:23;;;;;;;;;;;;;;;7.00;52.96;93346.59;2051826;70;20047;-76
2023/02/02 12:13:55;;;;;;;;;;;;;;;7.03;53.60;93341.91;2051640;70;20043;-75
2023/02/02 12:16:48;;;;;;;;;;;;;;;7.14;53.34;93330.97;2051836;70;20050;-76
2023/02/02 12:19:28;;;;;;;;;;;;;;;7.16;52.42;93330.41;2051710;70;20046;-76
2023/02/02 12:22:09;;;;;;;;;;;;;;;7.28;52.90;93327.88;2051862;70;20062;-76
2023/02/02 12:24:37;;;;;;;;;;;;;;;7.37;52.03;93327.97;2051819;70;20043;-77
2023/02/02 12:27:05;;;;;;;;;;;;;;;7.04;50.20;93329.41;2051822;70;20051;-76
2023/02/02 12:29:43;;;;;;;;;;;;;;;6.99;49.94;93341.56;2051718;70;20072;-75
2023/02/02 12:32:28;;;;;;;;;;;;;;;6.88;51.35;93340.72;2051568;70;20050;-75
2023/02/02 12:34:54;;;;;;;;;;;;;;;6.86;49.97;93312.56;2051705;70;20054;-77
2023/02/02 12:37:22;;;;;;;;;;;;;;;6.90;46.99;93328.22;2051664;70;20106;-76
2023/02/02 12:40:01;;;;;;;;;;;;;;;6.68;47.45;93333.41;2051846;70;20073;-76
2023/02/02 12:42:33;;;;;;;;;;;;;;;6.99;48.68;93327.59;2051590;70;20054;-77
2023/02/02 12:45:14;;;;;;;;;;;;;;;7.27;48.49;93329.19;2051733;70;20058;-76
2023/02/02 12:48:09;;;;;;;;;;;;;;;7.04;48.82;93337.81;2051714;70;20043;-75
2023/02/02 12:50:42;;;;;;;;;;;;;;;7.04;47.14;93337.81;2049390;70;20523;-76
2023/02/02 12:53:07;;;;;;;;;;;;;;;7.25;46.50;93323.44;2051632;70;20054;-76
2023/02/02 12:55:52;;;;;;;;;;;;;;;7.30;45.54;93325.25;2051664;70;20121;-76
2023/02/02 12:58:20;;;;;;;;;;;;;;;6.91;45.49;93315.69;2051526;70;20048;-76
2023/02/02 13:00:48;;;;;;;;;;;;;;;7.01;46.56;93316.53;2051604;70;20074;-74
2023/02/02 13:03:14;;;;;;;;;;;;;;;7.02;46.45;93326.44;2048393;70;20546;-75
2023/02/02 13:05:59;;;;;;;;;;;;;;;7.09;45.83;93328.41;2051449;70;20054;-77
2023/02/02 13:08:30;;;;;;;;;;;;;;;7.31;46.33;93333.06;2050188;70;20098;-76
2023/02/02 13:11:04;;;;;;;;;;;;;;;7.09;46.48;93328.41;2051586;70;20051;-76
2023/02/02 13:13:32;;;;;;;;;;;;;;;7.22;46.93;93330.91;2051690;70;20078;-74
2023/02/02 13:16:02;;;;;;;;;;;;;;;7.35;44.74;93321.47;2051887;70;20058;-76